createdAt,value
2023-03-08T00:00:51.400Z,12.83
2023-03-08T00:03:19.797Z,10.23
2023-03-08T00:05:48.061Z,9.30
2023-03-08T00:08:16.752Z,11.97
2023-03-08T00:10:45.107Z,9.43
2023-03-08T00:13:13.804Z,10.57
2023-03-08T00:15:42.329Z,9.73
2023-03-08T00:18:12.144Z,10.37
2023-03-08T00:20:40.404Z,11.47
2023-03-08T00:23:10.457Z,11.37
2023-03-08T00:25:38.701Z,9.80
2023-03-08T00:28:07.150Z,9.30
2023-03-08T00:30:35.734Z,10.60
2023-03-08T00:33:04.088Z,10.43
2023-03-08T00:35:33.862Z,9.93
2023-03-08T00:38:02.215Z,9.90
2023-03-08T00:40:30.907Z,11.30
2023-03-08T00:42:59.235Z,9.73
2023-03-08T00:45:27.704Z,10.70
2023-03-08T00:47:55.890Z,12.40
2023-03-08T00:50:24.156Z,10.47
2023-03-08T00:52:53.921Z,8.83
2023-03-08T00:55:22.197Z,9.87
2023-03-08T00:57:50.618Z,8.80
2023-03-08T01:00:19.346Z,8.57
2023-03-08T01:02:47.738Z,9.50
2023-03-08T01:05:16.136Z,9.40
2023-03-08T01:07:44.467Z,11.90
2023-03-08T01:10:14.442Z,9.53
2023-03-08T01:12:42.682Z,8.67
2023-03-08T01:15:11.353Z,9.47
2023-03-08T01:17:39.762Z,10.30
2023-03-08T01:20:08.637Z,12.37
2023-03-08T01:22:37.020Z,10.40
2023-03-08T01:25:05.579Z,12.77
2023-03-08T01:27:35.363Z,9.70
2023-03-08T01:30:03.800Z,10.47
2023-03-08T01:32:32.163Z,11.13
2023-03-08T01:35:04.565Z,11.27
2023-03-08T01:37:33.224Z,11.27
2023-03-08T01:40:01.861Z,9.90
2023-03-08T01:42:30.343Z,9.90
2023-03-08T01:45:01.084Z,10.70
2023-03-08T01:47:30.109Z,10.57
2023-03-08T01:50:01.460Z,10.57
2023-03-08T01:52:31.810Z,11.40
2023-03-08T01:55:01.000Z,11.37
2023-03-08T01:57:31.710Z,12.20
2023-03-08T02:00:05.174Z,10.77
2023-03-08T02:02:36.209Z,11.93
2023-03-08T02:05:04.690Z,11.23
2023-03-08T02:07:33.160Z,11.70
2023-03-08T02:10:02.006Z,14.37
2023-03-08T02:12:30.749Z,9.77
2023-03-08T02:14:59.607Z,11.43
2023-03-08T02:17:29.384Z,12.80
2023-03-08T02:19:59.316Z,12.27
2023-03-08T02:22:28.274Z,10.27
2023-03-08T02:24:57.958Z,10.90
2023-03-08T02:27:27.741Z,11.33
2023-03-08T02:29:56.501Z,11.20
2023-03-08T02:32:24.827Z,13.77
2023-03-08T02:34:53.279Z,11.03
2023-03-08T02:37:21.692Z,12.43
2023-03-08T02:39:50.143Z,10.60
2023-03-08T02:42:19.837Z,11.07
2023-03-08T02:44:48.129Z,13.10
2023-03-08T02:47:16.441Z,9.33
2023-03-08T02:49:44.890Z,11.87
2023-03-08T02:52:13.360Z,11.10
2023-03-08T02:54:41.773Z,12.00
2023-03-08T02:57:10.132Z,11.00
2023-03-08T02:59:39.891Z,10.00
2023-03-08T03:02:08.310Z,11.23
2023-03-08T03:04:36.741Z,10.40
2023-03-08T03:07:05.495Z,11.90
2023-03-08T03:09:36.120Z,11.73
2023-03-08T03:12:04.455Z,10.57
2023-03-08T03:14:34.318Z,12.00
2023-03-08T03:17:04.007Z,11.27
2023-03-08T03:19:32.498Z,10.53
2023-03-08T03:22:00.962Z,10.67
2023-03-08T03:24:29.390Z,11.60
2023-03-08T03:26:57.809Z,10.33
2023-03-08T03:29:26.250Z,13.90
2023-03-08T03:31:54.639Z,10.90
2023-03-08T03:34:24.527Z,12.50
2023-03-08T03:36:52.864Z,11.77
2023-03-08T03:39:21.250Z,11.10
2023-03-08T03:41:49.628Z,13.30
2023-03-08T03:44:18.058Z,10.07
2023-03-08T03:46:46.541Z,10.40
2023-03-08T03:49:14.976Z,11.20
2023-03-08T03:51:44.657Z,11.40
2023-03-08T03:54:12.918Z,10.53
2023-03-08T03:56:41.238Z,11.40
2023-03-08T03:59:09.666Z,10.90
2023-03-08T04:01:38.045Z,11.43
2023-03-08T04:04:06.461Z,10.33
2023-03-08T04:06:35.521Z,11.23
2023-03-08T04:09:06.551Z,11.37
2023-03-08T04:11:36.322Z,10.97
2023-03-08T04:14:04.686Z,10.80
2023-03-08T04:16:34.269Z,11.80
2023-03-08T04:19:03.698Z,12.67
2023-03-08T04:21:32.208Z,11.97
2023-03-08T04:24:01.122Z,12.37
2023-03-08T04:26:30.893Z,12.50
2023-03-08T04:28:59.281Z,11.80
2023-03-08T04:31:28.483Z,11.17
2023-03-08T04:33:58.244Z,12.17
2023-03-08T04:36:26.675Z,12.57
2023-03-08T04:38:55.044Z,12.53
2023-03-08T04:41:23.417Z,12.20
2023-03-08T04:43:53.679Z,12.67
2023-03-08T04:46:24.029Z,13.17
2023-03-08T04:48:55.575Z,13.07
2023-03-08T04:51:24.760Z,13.27
2023-03-08T04:53:53.383Z,12.10
2023-03-08T04:56:21.827Z,13.57
2023-03-08T04:58:50.215Z,14.07
2023-03-08T05:01:20.683Z,13.07
2023-03-08T05:03:49.950Z,13.50
2023-03-08T05:06:18.363Z,10.63
2023-03-08T05:08:46.982Z,11.20
2023-03-08T05:11:18.188Z,12.60
2023-03-08T05:13:46.466Z,14.97
2023-03-08T05:16:14.920Z,12.30
2023-03-08T05:18:44.677Z,13.97
2023-03-08T05:21:13.796Z,10.43
2023-03-08T05:23:42.391Z,13.63
2023-03-08T05:26:11.281Z,11.50
2023-03-08T05:28:41.807Z,11.33
2023-03-08T05:31:12.416Z,15.17
2023-03-08T05:33:41.289Z,13.53
2023-03-08T05:36:12.678Z,11.60
2023-03-08T05:38:41.237Z,15.93
2023-03-08T05:41:10.664Z,14.73
2023-03-08T05:43:39.091Z,14.33
2023-03-08T05:46:08.519Z,13.20
2023-03-08T05:48:37.391Z,15.70
2023-03-08T05:51:06.730Z,11.73
2023-03-08T05:53:36.727Z,11.60
2023-03-08T05:56:11.945Z,13.27
2023-03-08T05:58:42.917Z,13.27
2023-03-08T06:01:13.077Z,13.73
2023-03-08T06:03:41.585Z,10.57
2023-03-08T06:06:10.117Z,13.17
2023-03-08T06:08:39.813Z,12.70
2023-03-08T06:11:08.395Z,13.00
2023-03-08T06:13:36.825Z,14.27
2023-03-08T06:16:06.184Z,13.63
2023-03-08T06:18:34.889Z,12.03
2023-03-08T06:21:04.017Z,13.43
2023-03-08T06:23:33.264Z,13.33
2023-03-08T06:26:03.049Z,18.27
2023-03-08T06:28:31.522Z,14.17
2023-03-08T06:31:00.127Z,14.23
2023-03-08T06:33:29.214Z,12.60
2023-03-08T06:35:58.250Z,13.00
2023-03-08T06:38:29.257Z,13.00
2023-03-08T06:40:58.271Z,13.90
2023-03-08T06:43:28.133Z,13.73
2023-03-08T06:45:56.649Z,11.37
2023-03-08T06:48:25.359Z,14.60
2023-03-08T06:50:53.734Z,13.53
2023-03-08T06:53:22.156Z,12.20
2023-03-08T06:55:50.478Z,11.97
2023-03-08T06:58:18.762Z,14.03
2023-03-08T07:00:48.775Z,14.60
2023-03-08T07:03:17.211Z,12.30
2023-03-08T07:05:45.581Z,11.03
2023-03-08T07:08:14.061Z,11.70
2023-03-08T07:10:42.450Z,11.67
2023-03-08T07:13:10.768Z,15.67
2023-03-08T07:15:41.461Z,13.93
2023-03-08T07:18:11.310Z,12.80
2023-03-08T07:20:39.639Z,11.83
2023-03-08T07:23:08.067Z,11.57
2023-03-08T07:25:36.445Z,13.00
2023-03-08T07:28:04.771Z,12.57
2023-03-08T07:30:33.156Z,10.63
2023-03-08T07:33:01.614Z,11.87
2023-03-08T07:35:31.627Z,50.53
2023-03-08T07:37:59.968Z,16.53
2023-03-08T07:40:28.313Z,17.13
2023-03-08T07:42:57.569Z,15.10
2023-03-08T07:45:26.043Z,12.67
2023-03-08T07:47:54.775Z,11.73
2023-03-08T07:50:23.559Z,10.77
2023-03-08T07:52:53.386Z,12.27
2023-03-08T07:55:22.188Z,12.57
2023-03-08T07:57:50.651Z,10.90
2023-03-08T08:00:19.819Z,11.40
2023-03-08T08:02:48.314Z,12.10
2023-03-08T08:05:16.952Z,11.30
2023-03-08T08:07:47.593Z,16.10
2023-03-08T08:10:17.531Z,12.80
2023-03-08T08:12:45.897Z,12.03
2023-03-08T08:15:14.469Z,12.50
2023-03-08T08:17:42.754Z,12.07
2023-03-08T08:20:11.795Z,13.20
2023-03-08T08:22:40.180Z,12.53
2023-03-08T08:25:09.117Z,12.37
2023-03-08T08:27:38.877Z,12.30
2023-03-08T08:30:07.783Z,14.43
2023-03-08T08:32:36.264Z,12.77
2023-03-08T08:35:04.828Z,14.13
2023-03-08T08:37:33.307Z,13.47
2023-03-08T08:40:01.734Z,13.33
2023-03-08T08:42:30.067Z,13.27
2023-03-08T08:44:59.829Z,13.80
2023-03-08T08:47:30.063Z,13.13
2023-03-08T08:49:58.403Z,12.63
2023-03-08T08:52:26.796Z,13.10
2023-03-08T08:54:56.689Z,14.83
2023-03-08T08:57:25.196Z,13.60
2023-03-08T08:59:53.499Z,15.77
2023-03-08T09:02:23.431Z,17.83
2023-03-08T09:04:51.926Z,13.20
2023-03-08T09:07:20.380Z,15.03
2023-03-08T09:09:48.713Z,15.27
2023-03-08T09:12:16.952Z,13.87
2023-03-08T09:14:45.229Z,13.60
2023-03-08T09:17:13.662Z,13.30
2023-03-08T09:19:43.374Z,13.30
2023-03-08T09:22:12.717Z,13.87
2023-03-08T09:24:41.105Z,16.30
2023-03-08T09:27:09.658Z,13.03
2023-03-08T09:29:38.173Z,12.37
2023-03-08T09:32:06.946Z,12.40
2023-03-08T09:34:35.410Z,12.33
2023-03-08T09:37:07.860Z,13.63
2023-03-08T09:39:36.450Z,13.50
2023-03-08T09:42:05.344Z,14.70
2023-03-08T09:44:44.064Z,15.20
2023-03-08T09:47:15.301Z,14.40
2023-03-08T09:49:44.731Z,14.60
2023-03-08T09:52:25.345Z,14.00
2023-03-08T09:54:54.538Z,14.23
2023-03-08T09:57:25.513Z,16.50
2023-03-08T09:59:55.931Z,14.37
2023-03-08T10:02:29.758Z,12.10
2023-03-08T10:05:12.719Z,13.10
2023-03-08T10:07:47.460Z,12.80
2023-03-08T10:10:23.357Z,13.10
2023-03-08T10:12:58.679Z,15.20
2023-03-08T10:15:27.907Z,13.90
2023-03-08T10:17:58.663Z,15.83
2023-03-08T10:20:29.958Z,15.30
2023-03-08T10:23:01.004Z,16.37
2023-03-08T10:25:31.366Z,13.27
2023-03-08T10:28:00.936Z,13.67
2023-03-08T10:30:33.879Z,13.80
2023-03-08T10:33:03.090Z,17.27
2023-03-08T10:35:36.582Z,12.73
2023-03-08T10:38:06.895Z,12.50
2023-03-08T10:40:35.375Z,12.10
2023-03-08T10:43:05.645Z,14.37
2023-03-08T10:45:34.288Z,14.53
2023-03-08T10:48:03.894Z,12.53
2023-03-08T10:50:32.988Z,13.37
2023-03-08T10:53:11.584Z,14.03
2023-03-08T10:55:45.767Z,13.20
2023-03-08T10:58:28.346Z,12.60
2023-03-08T11:00:57.743Z,13.37
2023-03-08T11:03:26.871Z,14.67
2023-03-08T11:05:57.016Z,15.93
2023-03-08T11:08:28.249Z,14.00
2023-03-08T11:11:03.354Z,13.87
2023-03-08T11:13:32.720Z,12.70
2023-03-08T11:16:05.211Z,12.70
2023-03-08T11:18:43.074Z,10.33
2023-03-08T11:21:15.588Z,9.30
2023-03-08T11:23:47.643Z,10.20
2023-03-08T11:26:21.612Z,11.53
2023-03-08T11:28:56.219Z,10.10
2023-03-08T11:31:28.637Z,12.87
2023-03-08T11:34:15.677Z,10.20
2023-03-08T11:36:47.845Z,10.23
2023-03-08T11:39:20.367Z,9.67
2023-03-08T11:41:53.185Z,9.43
2023-03-08T11:44:28.643Z,9.93
2023-03-08T11:47:02.251Z,10.33
2023-03-08T11:49:43.495Z,13.50
2023-03-08T11:52:17.994Z,10.03
2023-03-08T11:54:53.267Z,11.00
2023-03-08T11:57:22.172Z,9.17
2023-03-08T11:59:53.577Z,9.97
2023-03-08T12:02:24.202Z,9.07
2023-03-08T12:04:57.645Z,10.03
2023-03-08T12:07:29.399Z,9.50
2023-03-08T12:10:01.891Z,10.13
2023-03-08T12:12:31.549Z,11.00
2023-03-08T12:15:02.095Z,13.13
2023-03-08T12:17:32.260Z,11.53
2023-03-08T12:20:00.717Z,10.50
2023-03-08T12:22:33.652Z,10.53
2023-03-08T12:25:08.488Z,11.20
2023-03-08T12:27:39.675Z,11.73
2023-03-08T12:30:15.592Z,11.50
2023-03-08T12:32:44.660Z,11.20
2023-03-08T12:35:26.993Z,12.30
2023-03-08T12:37:59.611Z,11.33
2023-03-08T12:40:46.136Z,9.33
2023-03-08T12:43:16.888Z,9.80
2023-03-08T12:45:45.909Z,8.27
2023-03-08T12:48:26.180Z,8.40
2023-03-08T12:51:00.530Z,6.33
2023-03-08T12:53:33.765Z,8.73
2023-03-08T12:56:03.560Z,6.03
2023-03-08T12:58:34.083Z,6.37
2023-03-08T13:01:03.760Z,6.40
2023-03-08T13:03:38.499Z,8.80
2023-03-08T13:06:17.283Z,6.90
2023-03-08T13:08:51.129Z,6.97
2023-03-08T13:11:19.738Z,6.33
2023-03-08T13:13:52.322Z,7.23
2023-03-08T13:16:22.259Z,5.30
2023-03-08T13:18:54.671Z,5.77
2023-03-08T13:21:28.771Z,4.47
2023-03-08T13:23:59.837Z,3.30
2023-03-08T13:26:50.950Z,1.80
2023-03-08T13:29:21.818Z,1.70
2023-03-08T13:31:50.435Z,1.90
2023-03-08T13:34:26.115Z,1.20
2023-03-08T13:36:54.907Z,1.40
2023-03-08T13:39:24.590Z,1.20
2023-03-08T13:41:53.115Z,1.70
2023-03-08T13:44:23.957Z,1.50
2023-03-08T13:46:53.234Z,1.87
2023-03-08T13:49:23.715Z,1.50
2023-03-08T13:51:53.161Z,1.97
2023-03-08T13:54:29.402Z,1.20
2023-03-08T13:56:58.346Z,1.73
2023-03-08T13:59:28.772Z,1.63
2023-03-08T14:01:57.629Z,2.03
2023-03-08T14:04:27.514Z,5.50
2023-03-08T14:06:56.592Z,1.20
2023-03-08T14:09:25.841Z,1.53
2023-03-08T14:11:59.724Z,1.60
2023-03-08T14:14:31.403Z,1.20
2023-03-08T14:17:00.226Z,1.43
2023-03-08T14:19:29.798Z,1.40
2023-03-08T14:21:59.856Z,1.60
2023-03-08T14:24:29.211Z,1.37
2023-03-08T14:27:00.377Z,1.93
2023-03-08T14:29:31.666Z,1.40
2023-03-08T14:32:01.436Z,1.57
2023-03-08T14:34:33.834Z,1.80
2023-03-08T14:37:03.078Z,1.20
2023-03-08T14:39:32.871Z,2.13
2023-03-08T14:42:10.271Z,1.73
2023-03-08T14:44:40.823Z,1.60
2023-03-08T14:47:09.682Z,1.33
2023-03-08T14:49:38.180Z,1.53
2023-03-08T14:52:08.587Z,1.60
2023-03-08T14:54:40.993Z,1.50
2023-03-08T14:57:17.246Z,1.53
2023-03-08T14:59:47.535Z,1.20
2023-03-08T15:02:17.944Z,2.17
2023-03-08T15:04:46.748Z,3.13
2023-03-08T15:07:18.246Z,1.43
2023-03-08T15:09:46.729Z,3.03
2023-03-08T15:12:15.163Z,1.90
2023-03-08T15:14:43.552Z,1.57
2023-03-08T15:17:13.497Z,1.30
2023-03-08T15:19:41.925Z,1.63
2023-03-08T15:22:10.882Z,2.77
2023-03-08T15:24:41.197Z,1.60
2023-03-08T15:27:11.936Z,1.50
2023-03-08T15:29:40.253Z,1.27
2023-03-08T15:32:09.293Z,1.77
2023-03-08T15:34:39.593Z,1.27
2023-03-08T15:37:08.153Z,3.20
2023-03-08T15:39:36.547Z,1.60
2023-03-08T15:42:04.807Z,1.73
2023-03-08T15:44:33.297Z,1.97
2023-03-08T15:47:01.899Z,1.93
2023-03-08T15:49:30.330Z,2.80
2023-03-08T15:52:00.115Z,1.60
2023-03-08T15:54:28.604Z,1.50
2023-03-08T15:56:58.512Z,2.50
2023-03-08T15:59:26.883Z,1.23
2023-03-08T16:01:55.378Z,1.40
2023-03-08T16:04:23.761Z,1.80
2023-03-08T16:06:52.131Z,2.07
2023-03-08T16:09:24.142Z,1.90
2023-03-08T16:11:52.904Z,1.57
2023-03-08T16:14:21.317Z,1.40
2023-03-08T16:16:49.754Z,1.83
2023-03-08T16:19:18.134Z,1.50
2023-03-08T16:21:46.497Z,1.70
2023-03-08T16:24:14.830Z,4.37
2023-03-08T16:26:44.797Z,1.50
2023-03-08T16:29:13.231Z,1.37
2023-03-08T16:31:41.635Z,2.43
2023-03-08T16:34:10.221Z,2.03
2023-03-08T16:36:38.658Z,1.80
2023-03-08T16:39:07.356Z,1.40
2023-03-08T16:41:36.296Z,1.90
2023-03-08T16:44:06.678Z,1.30
2023-03-08T16:46:35.576Z,2.43
2023-03-08T16:49:03.887Z,1.50
2023-03-08T16:51:32.517Z,2.30
2023-03-08T16:54:01.012Z,3.30
2023-03-08T16:56:30.350Z,2.30
2023-03-08T16:59:01.198Z,2.17
2023-03-08T17:01:31.460Z,1.40
2023-03-08T17:04:00.138Z,2.47
2023-03-08T17:06:29.519Z,1.30
2023-03-08T17:08:58.849Z,1.60
2023-03-08T17:11:28.311Z,1.40
2023-03-08T17:13:57.410Z,2.90
2023-03-08T17:16:26.809Z,2.00
2023-03-08T17:18:56.671Z,1.50
2023-03-08T17:21:25.246Z,1.23
2023-03-08T17:23:53.903Z,2.70
2023-03-08T17:26:23.488Z,1.60
2023-03-08T17:28:52.229Z,1.93
2023-03-08T17:31:21.878Z,1.70
2023-03-08T17:33:50.335Z,1.40
2023-03-08T17:36:20.092Z,1.70
2023-03-08T17:38:48.774Z,2.60
2023-03-08T17:41:17.606Z,1.50
2023-03-08T17:43:46.060Z,1.83
2023-03-08T17:46:15.331Z,2.87
2023-03-08T17:48:43.898Z,2.33
2023-03-08T17:51:13.218Z,1.77
2023-03-08T17:53:43.392Z,1.70
2023-03-08T17:56:13.245Z,2.60
2023-03-08T17:58:42.026Z,4.53
2023-03-08T18:01:11.059Z,2.30
2023-03-08T18:03:39.619Z,1.60
2023-03-08T18:06:08.769Z,2.00
2023-03-08T18:08:37.196Z,1.40
2023-03-08T18:11:07.111Z,1.60
2023-03-08T18:13:35.554Z,2.53
2023-03-08T18:16:05.776Z,2.07
2023-03-08T18:18:34.230Z,2.63
2023-03-08T18:21:12.538Z,2.13
2023-03-08T18:23:44.920Z,1.77
2023-03-08T18:26:15.484Z,4.07
2023-03-08T18:28:43.889Z,1.50
2023-03-08T18:31:13.544Z,2.50
2023-03-08T18:33:41.971Z,1.80
2023-03-08T18:36:10.349Z,1.80
2023-03-08T18:38:38.812Z,1.97
2023-03-08T18:41:15.604Z,1.90
2023-03-08T18:43:44.191Z,1.87
2023-03-08T18:46:14.354Z,2.00
2023-03-08T18:48:43.120Z,2.40
2023-03-08T18:51:11.796Z,4.13
2023-03-08T18:53:40.380Z,1.70
2023-03-08T18:56:09.252Z,2.13
2023-03-08T18:58:38.968Z,1.90
2023-03-08T19:01:11.623Z,2.80
2023-03-08T19:03:40.034Z,2.60
2023-03-08T19:06:08.811Z,2.57
2023-03-08T19:08:37.241Z,1.30
2023-03-08T19:11:11.871Z,1.70
2023-03-08T19:13:41.708Z,1.70
2023-03-08T19:16:17.482Z,2.00
2023-03-08T19:18:45.928Z,1.50
2023-03-08T19:21:17.516Z,2.40
2023-03-08T19:23:45.998Z,2.70
2023-03-08T19:26:32.820Z,2.03
2023-03-08T19:29:04.364Z,1.57
2023-03-08T19:31:32.930Z,1.33
2023-03-08T19:34:01.352Z,1.50
2023-03-08T19:36:30.038Z,1.73
2023-03-08T19:38:58.349Z,1.63
2023-03-08T19:41:26.769Z,1.30
2023-03-08T19:43:55.352Z,2.23
2023-03-08T19:46:25.229Z,2.90
2023-03-08T19:48:54.058Z,1.40
2023-03-08T19:51:22.439Z,3.10
2023-03-08T19:53:50.816Z,1.20
2023-03-08T19:56:20.019Z,1.90
2023-03-08T19:58:48.918Z,2.50
2023-03-08T20:01:18.480Z,1.43
2023-03-08T20:03:48.470Z,1.37
2023-03-08T20:06:23.575Z,1.80
2023-03-08T20:08:53.066Z,1.50
2023-03-08T20:11:21.469Z,1.53
2023-03-08T20:13:49.828Z,1.63
2023-03-08T20:16:18.591Z,1.10
2023-03-08T20:18:49.176Z,1.83
2023-03-08T20:21:17.840Z,1.20
2023-03-08T20:23:46.327Z,1.47
2023-03-08T20:26:15.280Z,1.40
2023-03-08T20:28:43.577Z,1.30
2023-03-08T20:31:12.279Z,1.40
2023-03-08T20:33:40.955Z,1.60
2023-03-08T20:36:11.321Z,1.50
2023-03-08T20:38:39.920Z,1.43
2023-03-08T20:41:11.950Z,1.63
2023-03-08T20:43:40.504Z,1.60
2023-03-08T20:46:10.332Z,1.83
2023-03-08T20:48:39.526Z,1.70
2023-03-08T20:51:08.946Z,1.60
2023-03-08T20:53:39.074Z,1.93
2023-03-08T20:56:08.497Z,1.87
2023-03-08T20:58:37.026Z,2.23
2023-03-08T21:01:11.325Z,2.53
2023-03-08T21:03:40.047Z,2.23
2023-03-08T21:06:12.386Z,1.97
2023-03-08T21:08:42.375Z,1.50
2023-03-08T21:11:11.156Z,4.40
2023-03-08T21:13:40.045Z,1.20
2023-03-08T21:16:09.417Z,1.50
2023-03-08T21:18:37.831Z,1.40
2023-03-08T21:21:06.721Z,2.50
2023-03-08T21:23:34.969Z,1.50
2023-03-08T21:26:05.056Z,1.87
2023-03-08T21:28:33.394Z,1.83
2023-03-08T21:31:01.956Z,1.30
2023-03-08T21:33:30.355Z,2.10
2023-03-08T21:35:58.961Z,2.23
2023-03-08T21:38:27.460Z,1.43
2023-03-08T21:40:56.056Z,2.30
2023-03-08T21:43:25.901Z,1.67
2023-03-08T21:45:54.389Z,1.30
2023-03-08T21:48:23.028Z,1.40
2023-03-08T21:50:51.353Z,1.27
2023-03-08T21:53:19.782Z,1.67
2023-03-08T21:55:48.028Z,2.27
2023-03-08T21:58:16.335Z,1.40
2023-03-08T22:00:46.564Z,2.10
2023-03-08T22:03:14.959Z,3.47
2023-03-08T22:05:43.358Z,1.83
2023-03-08T22:08:11.760Z,1.70
2023-03-08T22:10:40.196Z,1.97
2023-03-08T22:13:08.616Z,2.10
2023-03-08T22:15:37.024Z,2.57
2023-03-08T22:18:06.865Z,2.67
2023-03-08T22:20:35.357Z,2.33
2023-03-08T22:23:03.919Z,3.23
2023-03-08T22:25:32.289Z,3.70
2023-03-08T22:28:00.610Z,2.43
2023-03-08T22:30:28.896Z,2.97
2023-03-08T22:32:57.375Z,2.90
2023-03-08T22:35:27.315Z,3.40
2023-03-08T22:37:59.713Z,3.80
2023-03-08T22:40:28.126Z,2.50
2023-03-08T22:42:56.529Z,2.23
2023-03-08T22:45:25.056Z,4.20
2023-03-08T22:47:53.490Z,2.30
2023-03-08T22:50:21.971Z,2.33
2023-03-08T22:52:51.804Z,3.10
2023-03-08T22:55:20.364Z,2.10
2023-03-08T22:57:48.855Z,1.73
2023-03-08T23:00:17.713Z,1.93
2023-03-08T23:02:47.890Z,2.40
2023-03-08T23:05:17.261Z,2.90
2023-03-08T23:07:45.801Z,2.00
2023-03-08T23:10:16.734Z,2.57
2023-03-08T23:12:45.420Z,1.80
2023-03-08T23:15:13.946Z,1.70
2023-03-08T23:17:42.403Z,3.40
2023-03-08T23:20:12.128Z,3.03
2023-03-08T23:22:40.521Z,2.20
2023-03-08T23:25:10.117Z,1.60
2023-03-08T23:27:39.985Z,1.93
2023-03-08T23:30:09.033Z,2.00
2023-03-08T23:32:37.444Z,1.80
2023-03-08T23:35:06.038Z,1.90
2023-03-08T23:37:34.418Z,1.70
2023-03-08T23:40:05.313Z,1.90
2023-03-08T23:42:33.736Z,2.57
2023-03-08T23:45:03.399Z,3.97
2023-03-08T23:47:31.771Z,2.23
2023-03-08T23:50:02.024Z,3.27
2023-03-08T23:52:30.473Z,3.27
2023-03-08T23:54:58.904Z,2.00
2023-03-08T23:57:27.312Z,3.70
2023-03-08T23:59:55.726Z,2.10
